createdAt,value
2018-06-24T00:00:48.227Z,0.00
2018-06-24T00:01:48.514Z,0.00
2018-06-24T00:02:48.292Z,0.00
2018-06-24T00:03:48.322Z,0.00
2018-06-24T00:04:48.354Z,0.00
2018-06-24T00:05:48.390Z,0.00
2018-06-24T00:06:48.466Z,0.00
2018-06-24T00:07:48.753Z,0.00
2018-06-24T00:08:48.479Z,0.00
2018-06-24T00:09:48.516Z,0.00
2018-06-24T00:10:48.548Z,0.00
2018-06-24T00:11:48.827Z,0.00
2018-06-24T00:12:48.608Z,0.00
2018-06-24T00:13:48.900Z,0.00
2018-06-24T00:14:48.677Z,0.00
2018-06-24T00:15:48.706Z,0.00
2018-06-24T00:16:48.735Z,0.00
2018-06-24T00:17:48.765Z,0.00
2018-06-24T00:18:48.799Z,0.00
2018-06-24T00:19:49.084Z,0.00
2018-06-24T00:20:48.860Z,0.00
2018-06-24T00:21:48.891Z,0.00
2018-06-24T00:22:48.926Z,0.00
2018-06-24T00:23:48.962Z,0.00
2018-06-24T00:24:48.989Z,0.00
2018-06-24T00:25:49.319Z,0.00
2018-06-24T00:26:49.049Z,0.00
2018-06-24T00:27:49.085Z,0.00
2018-06-24T00:28:49.121Z,0.00
2018-06-24T00:29:49.147Z,0.00
2018-06-24T00:30:49.176Z,0.00
2018-06-24T00:31:49.509Z,0.00
2018-06-24T00:32:49.249Z,0.00
2018-06-24T00:33:49.270Z,0.00
2018-06-24T00:34:49.301Z,0.00
2018-06-24T00:35:49.350Z,0.00
2018-06-24T00:36:49.367Z,0.00
2018-06-24T00:37:49.706Z,0.00
2018-06-24T00:38:49.429Z,0.00
2018-06-24T00:39:49.527Z,0.00
2018-06-24T00:40:49.548Z,0.00
2018-06-24T00:41:49.534Z,0.00
2018-06-24T00:42:49.554Z,0.00
2018-06-24T00:43:49.835Z,0.00
2018-06-24T00:44:49.616Z,0.00
2018-06-24T00:45:49.670Z,0.00
2018-06-24T00:46:49.681Z,0.00
2018-06-24T00:47:49.721Z,0.00
2018-06-24T00:48:49.756Z,0.00
2018-06-24T00:49:50.032Z,0.00
2018-06-24T00:50:49.822Z,0.00
2018-06-24T00:51:49.843Z,0.00
2018-06-24T00:52:49.869Z,0.00
2018-06-24T00:53:49.899Z,0.00
2018-06-24T00:54:49.931Z,0.00
2018-06-24T00:55:50.213Z,0.00
2018-06-24T00:56:50.006Z,0.00
2018-06-24T00:57:50.073Z,0.00
2018-06-24T00:58:50.069Z,0.00
2018-06-24T00:59:50.089Z,0.00
2018-06-24T01:00:50.170Z,0.00
2018-06-24T01:01:50.419Z,0.00
2018-06-24T01:02:50.183Z,0.00
2018-06-24T01:03:50.221Z,0.00
2018-06-24T01:04:50.249Z,0.00
2018-06-24T01:05:50.277Z,0.00
2018-06-24T01:06:50.314Z,0.00
2018-06-24T01:07:50.595Z,0.00
2018-06-24T01:08:50.379Z,0.00
2018-06-24T01:09:50.405Z,0.00
2018-06-24T01:10:50.433Z,0.00
2018-06-24T01:11:50.466Z,0.00
2018-06-24T01:12:50.501Z,0.00
2018-06-24T01:13:50.545Z,0.00
2018-06-24T01:14:50.810Z,0.00
2018-06-24T01:15:50.598Z,0.00
2018-06-24T01:16:50.626Z,0.00
2018-06-24T01:17:50.657Z,0.00
2018-06-24T01:18:50.686Z,0.00
2018-06-24T01:19:50.719Z,0.00
2018-06-24T01:20:50.751Z,0.00
2018-06-24T01:21:51.032Z,0.00
2018-06-24T01:22:50.814Z,0.00
2018-06-24T01:23:50.858Z,0.00
2018-06-24T01:24:50.878Z,0.00
2018-06-24T01:25:50.913Z,0.00
2018-06-24T01:26:50.938Z,0.00
2018-06-24T01:27:50.968Z,0.00
2018-06-24T01:28:51.251Z,0.00
2018-06-24T01:29:51.044Z,0.00
2018-06-24T01:30:51.068Z,0.00
2018-06-24T01:31:51.098Z,0.00
2018-06-24T01:32:51.131Z,0.00
2018-06-24T01:33:51.158Z,0.00
2018-06-24T01:34:51.187Z,0.00
2018-06-24T01:35:51.522Z,0.00
2018-06-24T01:36:51.454Z,0.00
2018-06-24T01:37:51.288Z,0.00
2018-06-24T01:38:51.315Z,0.00
2018-06-24T01:39:51.346Z,0.00
2018-06-24T01:40:51.377Z,0.00
2018-06-24T01:41:51.416Z,0.00
2018-06-24T01:42:51.692Z,0.00
2018-06-24T01:43:51.473Z,0.00
2018-06-24T01:44:51.505Z,0.00
2018-06-24T01:45:51.534Z,0.00
2018-06-24T01:46:51.568Z,0.00
2018-06-24T01:47:51.606Z,0.00
2018-06-24T01:48:51.633Z,0.00
2018-06-24T01:49:51.909Z,0.00
2018-06-24T01:50:51.694Z,0.00
2018-06-24T01:51:51.723Z,0.00
2018-06-24T01:52:51.755Z,0.00
2018-06-24T01:53:51.794Z,0.00
2018-06-24T01:54:51.832Z,0.00
2018-06-24T01:55:51.852Z,0.00
2018-06-24T01:56:52.129Z,0.00
2018-06-24T01:57:51.911Z,0.00
2018-06-24T01:58:51.941Z,0.00
2018-06-24T01:59:51.974Z,0.00
2018-06-24T02:00:52.004Z,0.00
2018-06-24T02:01:52.035Z,0.00
2018-06-24T02:02:52.067Z,0.00
2018-06-24T02:03:52.404Z,0.00
2018-06-24T02:04:52.131Z,0.00
2018-06-24T02:05:52.160Z,0.00
2018-06-24T02:06:52.191Z,0.00
2018-06-24T02:07:52.228Z,0.00
2018-06-24T02:08:52.255Z,0.00
2018-06-24T02:09:52.285Z,0.00
2018-06-24T02:10:52.566Z,0.00
2018-06-24T02:11:52.363Z,0.00
2018-06-24T02:12:52.380Z,0.00
2018-06-24T02:13:52.413Z,0.00
2018-06-24T02:14:52.442Z,0.00
2018-06-24T02:15:52.479Z,0.00
2018-06-24T02:16:52.507Z,0.00
2018-06-24T02:17:52.786Z,0.00
2018-06-24T02:18:52.568Z,0.00
2018-06-24T02:19:52.616Z,0.00
2018-06-24T02:20:52.682Z,0.00
2018-06-24T02:21:52.659Z,0.00
2018-06-24T02:22:52.692Z,0.00
2018-06-24T02:23:52.722Z,0.00
2018-06-24T02:24:53.004Z,0.00
2018-06-24T02:25:52.789Z,0.00
2018-06-24T02:26:52.818Z,0.00
2018-06-24T02:27:52.867Z,0.00
2018-06-24T02:28:52.880Z,0.00
2018-06-24T02:29:52.924Z,0.00
2018-06-24T02:30:52.943Z,0.00
2018-06-24T02:31:53.228Z,0.00
2018-06-24T02:32:53.021Z,0.00
2018-06-24T02:33:53.039Z,0.00
2018-06-24T02:34:53.069Z,0.00
2018-06-24T02:35:53.103Z,0.00
2018-06-24T02:36:53.184Z,0.00
2018-06-24T02:37:53.412Z,0.00
2018-06-24T02:38:53.200Z,0.00
2018-06-24T02:39:53.230Z,0.00
2018-06-24T02:40:53.266Z,0.00
2018-06-24T02:41:53.291Z,0.00
2018-06-24T02:42:53.328Z,0.00
2018-06-24T02:43:53.613Z,0.00
2018-06-24T02:44:53.387Z,0.00
2018-06-24T02:45:53.435Z,0.00
2018-06-24T02:46:53.455Z,0.00
2018-06-24T02:47:53.481Z,4.00
2018-06-24T02:48:53.514Z,4.00
2018-06-24T02:49:53.796Z,4.00
2018-06-24T02:50:53.581Z,4.00
2018-06-24T02:51:53.608Z,4.00
2018-06-24T02:52:53.738Z,4.00
2018-06-24T02:53:53.672Z,4.00
2018-06-24T02:54:53.702Z,4.00
2018-06-24T02:55:54.033Z,8.00
2018-06-24T02:56:53.766Z,8.00
2018-06-24T02:57:53.803Z,8.00
2018-06-24T02:58:53.829Z,8.00
2018-06-24T02:59:53.863Z,12.00
2018-06-24T03:00:53.892Z,8.00
2018-06-24T03:01:54.174Z,12.00
2018-06-24T03:02:53.957Z,12.00
2018-06-24T03:03:53.991Z,16.00
2018-06-24T03:04:54.033Z,16.00
2018-06-24T03:05:54.053Z,20.00
2018-06-24T03:06:54.087Z,20.00
2018-06-24T03:07:54.376Z,20.00
2018-06-24T03:08:54.148Z,28.00
2018-06-24T03:09:54.229Z,28.00
2018-06-24T03:10:54.211Z,28.00
2018-06-24T03:11:54.242Z,32.00
2018-06-24T03:12:54.274Z,32.00
2018-06-24T03:13:54.558Z,36.00
2018-06-24T03:14:54.341Z,40.00
2018-06-24T03:15:54.377Z,44.00
2018-06-24T03:16:54.403Z,48.00
2018-06-24T03:17:54.447Z,52.00
2018-06-24T03:18:54.468Z,60.00
2018-06-24T03:19:54.797Z,60.00
2018-06-24T03:20:54.536Z,68.00
2018-06-24T03:21:54.563Z,76.00
2018-06-24T03:22:54.597Z,76.00
2018-06-24T03:23:54.626Z,84.00
2018-06-24T03:24:54.680Z,92.00
2018-06-24T03:25:54.942Z,96.00
2018-06-24T03:26:54.729Z,104.00
2018-06-24T03:27:54.757Z,112.00
2018-06-24T03:28:54.785Z,116.00
2018-06-24T03:29:54.816Z,124.00
2018-06-24T03:30:54.852Z,132.00
2018-06-24T03:31:55.183Z,140.00
2018-06-24T03:32:54.931Z,148.00
2018-06-24T03:33:54.951Z,156.00
2018-06-24T03:34:54.977Z,164.00
2018-06-24T03:35:55.007Z,176.00
2018-06-24T03:36:55.042Z,184.00
2018-06-24T03:37:55.370Z,196.00
2018-06-24T03:38:55.109Z,204.00
2018-06-24T03:39:55.194Z,216.00
2018-06-24T03:40:55.168Z,224.00
2018-06-24T03:41:55.205Z,232.00
2018-06-24T03:42:55.230Z,244.00
2018-06-24T03:43:55.518Z,260.00
2018-06-24T03:44:55.446Z,276.00
2018-06-24T03:45:55.330Z,292.00
2018-06-24T03:46:55.396Z,308.00
2018-06-24T03:47:55.389Z,316.00
2018-06-24T03:48:55.423Z,324.00
2018-06-24T03:49:55.456Z,332.00
2018-06-24T03:50:55.785Z,340.00
2018-06-24T03:51:55.526Z,352.00
2018-06-24T03:52:55.586Z,364.00
2018-06-24T03:53:55.583Z,376.00
2018-06-24T03:54:55.615Z,392.00
2018-06-24T03:55:55.649Z,400.00
2018-06-24T03:56:55.685Z,404.00
2018-06-24T03:57:55.974Z,408.00
2018-06-24T03:58:55.741Z,412.00
2018-06-24T03:59:55.789Z,416.00
2018-06-24T04:00:55.835Z,424.00
2018-06-24T04:01:55.839Z,428.00
2018-06-24T04:02:55.874Z,440.00
2018-06-24T04:03:55.903Z,448.00
2018-06-24T04:04:56.199Z,464.00
2018-06-24T04:05:56.055Z,472.00
2018-06-24T04:06:56.066Z,488.00
2018-06-24T04:07:56.032Z,500.00
2018-06-24T04:08:56.064Z,520.00
2018-06-24T04:09:56.121Z,536.00
2018-06-24T04:10:56.128Z,564.00
2018-06-24T04:11:56.478Z,588.00
2018-06-24T04:12:56.204Z,620.00
2018-06-24T04:13:56.271Z,656.00
2018-06-24T04:14:56.319Z,688.00
2018-06-24T04:15:56.305Z,724.00
2018-06-24T04:16:56.337Z,752.00
2018-06-24T04:17:56.368Z,772.00
2018-06-24T04:18:56.637Z,796.00
2018-06-24T04:19:56.417Z,824.00
2018-06-24T04:20:56.533Z,844.00
2018-06-24T04:21:56.478Z,864.00
2018-06-24T04:22:56.620Z,884.00
2018-06-24T04:23:56.575Z,904.00
2018-06-24T04:24:56.600Z,928.00
2018-06-24T04:25:56.919Z,936.00
2018-06-24T04:26:56.648Z,936.00
2018-06-24T04:27:56.720Z,928.00
2018-06-24T04:28:56.720Z,920.00
2018-06-24T04:29:56.793Z,904.00
2018-06-24T04:30:56.790Z,904.00
2018-06-24T04:31:56.826Z,912.00
2018-06-24T04:32:57.083Z,924.00
2018-06-24T04:33:56.913Z,944.00
2018-06-24T04:34:56.947Z,968.00
2018-06-24T04:35:56.932Z,996.00
2018-06-24T04:36:56.967Z,1036.00
2018-06-24T04:37:57.020Z,1060.00
2018-06-24T04:38:57.032Z,1064.00
2018-06-24T04:39:57.361Z,1072.00
2018-06-24T04:40:57.101Z,1052.00
2018-06-24T04:41:57.147Z,1032.00
2018-06-24T04:42:57.156Z,1028.00
2018-06-24T04:43:57.187Z,1024.00
2018-06-24T04:44:57.222Z,1032.00
2018-06-24T04:45:57.250Z,1044.00
2018-06-24T04:46:57.593Z,1068.00
2018-06-24T04:47:57.324Z,1108.00
2018-06-24T04:48:57.379Z,1136.00
2018-06-24T04:49:57.390Z,1164.00
2018-06-24T04:50:57.425Z,1188.00
2018-06-24T04:51:57.441Z,1192.00
2018-06-24T04:52:57.532Z,1208.00
2018-06-24T04:53:57.809Z,1232.00
2018-06-24T04:54:57.575Z,1304.00
2018-06-24T04:55:57.579Z,1392.00
2018-06-24T04:56:57.638Z,1504.00
2018-06-24T04:57:57.636Z,1628.00
2018-06-24T04:58:57.676Z,1748.00
2018-06-24T04:59:57.701Z,1804.00
2018-06-24T05:00:58.094Z,1808.00
2018-06-24T05:01:57.763Z,1804.00
2018-06-24T05:02:57.825Z,1788.00
2018-06-24T05:03:57.893Z,1768.00
2018-06-24T05:04:57.875Z,1744.00
2018-06-24T05:05:57.892Z,1776.00
2018-06-24T05:06:57.930Z,1756.00
2018-06-24T05:07:58.208Z,1784.00
2018-06-24T05:08:57.992Z,1832.00
2018-06-24T05:09:58.023Z,1848.00
2018-06-24T05:10:58.071Z,1900.00
2018-06-24T05:11:58.110Z,1852.00
2018-06-24T05:12:58.120Z,1856.00
2018-06-24T05:13:58.452Z,1788.00
2018-06-24T05:14:58.199Z,1764.00
2018-06-24T05:15:58.228Z,1760.00
2018-06-24T05:16:58.254Z,1740.00
2018-06-24T05:17:58.282Z,1688.00
2018-06-24T05:18:58.320Z,1672.00
2018-06-24T05:19:58.647Z,1664.00
2018-06-24T05:20:58.379Z,1660.00
2018-06-24T05:21:58.410Z,1672.00
2018-06-24T05:22:58.451Z,1660.00
2018-06-24T05:23:58.476Z,1720.00
2018-06-24T05:24:58.607Z,1684.00
2018-06-24T05:25:58.848Z,1684.00
2018-06-24T05:26:58.579Z,1536.00
2018-06-24T05:27:58.605Z,1476.00
2018-06-24T05:28:58.637Z,1460.00
2018-06-24T05:29:58.668Z,1452.00
2018-06-24T05:30:58.717Z,1472.00
2018-06-24T05:31:58.983Z,1508.00
2018-06-24T05:32:58.920Z,1572.00
2018-06-24T05:33:58.798Z,1652.00
2018-06-24T05:34:58.844Z,1752.00
2018-06-24T05:35:58.869Z,1868.00
2018-06-24T05:36:58.909Z,1992.00
2018-06-24T05:37:59.181Z,2068.00
2018-06-24T05:38:58.963Z,2156.00
2018-06-24T05:39:58.996Z,2248.00
2018-06-24T05:40:59.024Z,2252.00
2018-06-24T05:41:59.071Z,2168.00
2018-06-24T05:42:59.107Z,2084.00
2018-06-24T05:43:59.476Z,2024.00
2018-06-24T05:44:59.156Z,1992.00
2018-06-24T05:45:59.194Z,1980.00
2018-06-24T05:46:59.224Z,1996.00
2018-06-24T05:47:59.256Z,2064.00
2018-06-24T05:48:59.284Z,2160.00
2018-06-24T05:49:59.570Z,2248.00
2018-06-24T05:50:59.363Z,2324.00
2018-06-24T05:51:59.386Z,2452.00
2018-06-24T05:52:59.413Z,2632.00
2018-06-24T05:53:59.448Z,2784.00
2018-06-24T05:54:59.483Z,2904.00
2018-06-24T05:55:59.815Z,2996.00
2018-06-24T05:56:59.544Z,3068.00
2018-06-24T05:57:59.574Z,3136.00
2018-06-24T05:58:59.620Z,3208.00
2018-06-24T05:59:59.743Z,3236.00
2018-06-24T06:00:59.672Z,3244.00
2018-06-24T06:01:59.954Z,3136.00
2018-06-24T06:02:59.974Z,3068.00
2018-06-24T06:03:59.773Z,3232.00
2018-06-24T06:04:59.809Z,3348.00
2018-06-24T06:05:59.837Z,3288.00
2018-06-24T06:06:59.867Z,3204.00
2018-06-24T06:08:00.155Z,3044.00
2018-06-24T06:08:59.931Z,3100.00
2018-06-24T06:09:59.969Z,3128.00
2018-06-24T06:10:59.996Z,3084.00
2018-06-24T06:12:00.039Z,3068.00
2018-06-24T06:13:00.070Z,3088.00
2018-06-24T06:14:00.498Z,3180.00
2018-06-24T06:15:00.128Z,3244.00
2018-06-24T06:16:00.166Z,3292.00
2018-06-24T06:17:00.192Z,3328.00
2018-06-24T06:18:00.228Z,3272.00
2018-06-24T06:19:00.260Z,3116.00
2018-06-24T06:20:00.541Z,2964.00
2018-06-24T06:21:00.323Z,2932.00
2018-06-24T06:22:00.357Z,3012.00
2018-06-24T06:23:00.391Z,3028.00
2018-06-24T06:24:00.430Z,3124.00
2018-06-24T06:25:00.458Z,3208.00
2018-06-24T06:26:00.498Z,3160.00
2018-06-24T06:27:00.770Z,3272.00
2018-06-24T06:28:00.554Z,3248.00
2018-06-24T06:29:00.589Z,3248.00
2018-06-24T06:30:00.618Z,3340.00
2018-06-24T06:31:00.651Z,3392.00
2018-06-24T06:32:00.683Z,3460.00
2018-06-24T06:33:00.728Z,3544.00
2018-06-24T06:34:01.000Z,3656.00
2018-06-24T06:35:00.791Z,3852.00
2018-06-24T06:36:00.815Z,3936.00
2018-06-24T06:37:00.846Z,3968.00
2018-06-24T06:38:00.882Z,4108.00
2018-06-24T06:39:00.924Z,4044.00
2018-06-24T06:40:00.945Z,4004.00
2018-06-24T06:41:01.228Z,3956.00
2018-06-24T06:42:01.009Z,4108.00
2018-06-24T06:43:01.046Z,4100.00
2018-06-24T06:44:01.079Z,4064.00
2018-06-24T06:45:01.341Z,4060.00
2018-06-24T06:46:01.149Z,4016.00
2018-06-24T06:47:01.182Z,3952.00
2018-06-24T06:48:01.463Z,3916.00
2018-06-24T06:49:01.255Z,3896.00
2018-06-24T06:50:01.279Z,3840.00
2018-06-24T06:51:01.598Z,3780.00
2018-06-24T06:52:01.345Z,3720.00
2018-06-24T06:53:01.375Z,3696.00
2018-06-24T06:54:01.408Z,3708.00
2018-06-24T06:55:01.737Z,3764.00
2018-06-24T06:56:01.476Z,3868.00
2018-06-24T06:57:01.511Z,4016.00
2018-06-24T06:58:01.689Z,4144.00
2018-06-24T06:59:01.576Z,4264.00
2018-06-24T07:00:01.648Z,4428.00
2018-06-24T07:01:01.641Z,4592.00
2018-06-24T07:02:01.923Z,4604.00
2018-06-24T07:03:01.703Z,4736.00
2018-06-24T07:04:01.738Z,4784.00
2018-06-24T07:05:01.770Z,4884.00
2018-06-24T07:06:01.806Z,4968.00
2018-06-24T07:07:01.869Z,4980.00
2018-06-24T07:08:01.931Z,4936.00
2018-06-24T07:09:02.153Z,4896.00
2018-06-24T07:10:01.958Z,4776.00
2018-06-24T07:11:01.969Z,4600.00
2018-06-24T07:12:02.039Z,4488.00
2018-06-24T07:13:02.109Z,4448.00
2018-06-24T07:14:02.072Z,4380.00
2018-06-24T07:15:02.115Z,4308.00
2018-06-24T07:16:02.398Z,4336.00
2018-06-24T07:17:02.169Z,4632.00
2018-06-24T07:18:02.206Z,4984.00
2018-06-24T07:19:02.238Z,5140.00
2018-06-24T07:20:02.279Z,5208.00
2018-06-24T07:21:02.304Z,5192.00
2018-06-24T07:22:02.354Z,5168.00
2018-06-24T07:23:02.669Z,5120.00
2018-06-24T07:24:02.407Z,5096.00
2018-06-24T07:25:02.445Z,5104.00
2018-06-24T07:26:02.494Z,5132.00
2018-06-24T07:27:02.503Z,5132.00
2018-06-24T07:28:02.549Z,5112.00
2018-06-24T07:29:02.573Z,5100.00
2018-06-24T07:30:02.863Z,5092.00
2018-06-24T07:31:02.637Z,5080.00
2018-06-24T07:32:02.674Z,5068.00
2018-06-24T07:33:02.766Z,5064.00
2018-06-24T07:34:02.739Z,4984.00
2018-06-24T07:35:02.772Z,4912.00
2018-06-24T07:36:02.823Z,4888.00
2018-06-24T07:37:03.141Z,4852.00
2018-06-24T07:38:02.881Z,4756.00
2018-06-24T07:39:02.938Z,4636.00
2018-06-24T07:40:02.939Z,4476.00
2018-06-24T07:41:02.988Z,4256.00
2018-06-24T07:42:03.005Z,4096.00
2018-06-24T07:43:03.046Z,4040.00
2018-06-24T07:44:03.324Z,3980.00
2018-06-24T07:45:03.107Z,3932.00
2018-06-24T07:46:03.141Z,3880.00
2018-06-24T07:47:03.179Z,3776.00
2018-06-24T07:48:03.213Z,3680.00
2018-06-24T07:49:03.246Z,3728.00
2018-06-24T07:50:03.542Z,3700.00
2018-06-24T07:51:03.314Z,3692.00
2018-06-24T07:52:03.343Z,3696.00
2018-06-24T07:53:03.378Z,3752.00
2018-06-24T07:54:03.410Z,3932.00
2018-06-24T07:55:03.444Z,4208.00
2018-06-24T07:56:03.779Z,4548.00
2018-06-24T07:57:03.511Z,4892.00
2018-06-24T07:58:03.617Z,5180.00
2018-06-24T07:59:03.580Z,5380.00
2018-06-24T08:00:03.612Z,5476.00
2018-06-24T08:01:03.647Z,5552.00
2018-06-24T08:02:03.928Z,5616.00
2018-06-24T08:03:03.711Z,5712.00
2018-06-24T08:04:03.753Z,5812.00
2018-06-24T08:05:03.782Z,5888.00
2018-06-24T08:06:03.820Z,5924.00
2018-06-24T08:07:03.849Z,5936.00
2018-06-24T08:08:04.208Z,5900.00
2018-06-24T08:09:03.915Z,6052.00
2018-06-24T08:10:03.951Z,6004.00
2018-06-24T08:11:03.980Z,5872.00
2018-06-24T08:12:04.019Z,5800.00
2018-06-24T08:13:04.154Z,5716.00
2018-06-24T08:14:04.334Z,5728.00
2018-06-24T08:15:04.117Z,5704.00
2018-06-24T08:16:04.159Z,5604.00
2018-06-24T08:17:04.185Z,5476.00
2018-06-24T08:18:04.222Z,5436.00
2018-06-24T08:19:04.272Z,5468.00
2018-06-24T08:20:04.587Z,5580.00
2018-06-24T08:21:04.327Z,5672.00
2018-06-24T08:22:04.352Z,5704.00
2018-06-24T08:23:04.388Z,5848.00
2018-06-24T08:24:04.421Z,5996.00
2018-06-24T08:25:04.457Z,6136.00
2018-06-24T08:26:04.739Z,6292.00
2018-06-24T08:27:04.531Z,6532.00
2018-06-24T08:28:04.634Z,6572.00
2018-06-24T08:29:04.591Z,6552.00
2018-06-24T08:30:04.625Z,6464.00
2018-06-24T08:31:04.660Z,6256.00
2018-06-24T08:32:04.944Z,6220.00
2018-06-24T08:33:04.730Z,6172.00
2018-06-24T08:34:04.783Z,6072.00
2018-06-24T08:35:04.796Z,5820.00
2018-06-24T08:36:04.831Z,5628.00
2018-06-24T08:37:04.867Z,5416.00
2018-06-24T08:38:05.207Z,5280.00
2018-06-24T08:39:04.953Z,5256.00
2018-06-24T08:40:04.968Z,5496.00
2018-06-24T08:41:05.005Z,5884.00
2018-06-24T08:42:05.038Z,6028.00
2018-06-24T08:43:05.068Z,6084.00
2018-06-24T08:44:05.496Z,6140.00
2018-06-24T08:45:05.137Z,5952.00
2018-06-24T08:46:05.173Z,5716.00
2018-06-24T08:47:05.204Z,5564.00
2018-06-24T08:48:05.239Z,5764.00
2018-06-24T08:49:05.281Z,5972.00
2018-06-24T08:50:05.607Z,6172.00
2018-06-24T08:51:05.344Z,6272.00
2018-06-24T08:52:05.374Z,6276.00
2018-06-24T08:53:05.464Z,6180.00
2018-06-24T08:54:05.443Z,6092.00
2018-06-24T08:55:05.478Z,6064.00
2018-06-24T08:56:05.817Z,6080.00
2018-06-24T08:57:05.571Z,6148.00
2018-06-24T08:58:05.582Z,6096.00
2018-06-24T08:59:05.626Z,6088.00
2018-06-24T09:00:05.648Z,6056.00
2018-06-24T09:01:05.683Z,6124.00
2018-06-24T09:02:05.967Z,6204.00
2018-06-24T09:03:05.802Z,6312.00
2018-06-24T09:04:05.799Z,6388.00
2018-06-24T09:05:05.817Z,6512.00
2018-06-24T09:06:05.877Z,6480.00
2018-06-24T09:07:05.892Z,6644.00
2018-06-24T09:08:05.991Z,6960.00
2018-06-24T09:09:06.209Z,7172.00
2018-06-24T09:10:05.988Z,7376.00
2018-06-24T09:11:06.021Z,7100.00
2018-06-24T09:12:06.059Z,6844.00
2018-06-24T09:13:06.092Z,6760.00
2018-06-24T09:14:06.126Z,6656.00
2018-06-24T09:15:06.184Z,6600.00
2018-06-24T09:16:06.446Z,6708.00
2018-06-24T09:17:06.233Z,6844.00
2018-06-24T09:18:06.262Z,6788.00
2018-06-24T09:19:06.348Z,6724.00
2018-06-24T09:20:06.333Z,6880.00
2018-06-24T09:21:06.385Z,7132.00
2018-06-24T09:22:06.443Z,7364.00
2018-06-24T09:23:06.740Z,7464.00
2018-06-24T09:24:06.481Z,7616.00
2018-06-24T09:25:06.518Z,7504.00
2018-06-24T09:26:06.535Z,7216.00
2018-06-24T09:27:06.584Z,6728.00
2018-06-24T09:28:06.605Z,6156.00
2018-06-24T09:29:06.645Z,5904.00
2018-06-24T09:30:06.947Z,5904.00
2018-06-24T09:31:06.707Z,6124.00
2018-06-24T09:32:06.747Z,6384.00
2018-06-24T09:33:06.777Z,6672.00
2018-06-24T09:34:06.822Z,7124.00
2018-06-24T09:35:06.848Z,7316.00
2018-06-24T09:36:06.896Z,7284.00
2018-06-24T09:37:06.910Z,7132.00
2018-06-24T09:38:06.950Z,6888.00
2018-06-24T09:39:06.977Z,7088.00
2018-06-24T09:40:07.014Z,6968.00
2018-06-24T09:41:07.107Z,6896.00
2018-06-24T09:42:07.086Z,7024.00
2018-06-24T09:43:07.452Z,6948.00
2018-06-24T09:44:07.148Z,6788.00
2018-06-24T09:45:07.183Z,6936.00
2018-06-24T09:46:07.220Z,7052.00
2018-06-24T09:47:07.256Z,7008.00
2018-06-24T09:48:07.283Z,7016.00
2018-06-24T09:49:07.314Z,7016.00
2018-06-24T09:50:07.611Z,6988.00
2018-06-24T09:51:07.380Z,7108.00
2018-06-24T09:52:07.413Z,7076.00
2018-06-24T09:53:07.462Z,6912.00
2018-06-24T09:54:07.481Z,6800.00
2018-06-24T09:55:07.527Z,6692.00
2018-06-24T09:56:07.544Z,6724.00
2018-06-24T09:57:07.879Z,6672.00
2018-06-24T09:58:07.608Z,6656.00
2018-06-24T09:59:07.643Z,6752.00
2018-06-24T10:00:07.681Z,6752.00
2018-06-24T10:01:07.715Z,6932.00
2018-06-24T10:02:07.742Z,7152.00
2018-06-24T10:03:07.777Z,7384.00
2018-06-24T10:04:08.116Z,7244.00
2018-06-24T10:05:07.856Z,7240.00
2018-06-24T10:06:07.876Z,7216.00
2018-06-24T10:07:07.917Z,6936.00
2018-06-24T10:08:07.943Z,7048.00
2018-06-24T10:09:07.973Z,6988.00
2018-06-24T10:10:08.006Z,6912.00
2018-06-24T10:11:08.425Z,6732.00
2018-06-24T10:12:08.074Z,6712.00
2018-06-24T10:13:08.113Z,6544.00
2018-06-24T10:14:08.142Z,6284.00
2018-06-24T10:15:08.175Z,6456.00
2018-06-24T10:16:08.208Z,6544.00
2018-06-24T10:17:08.249Z,6248.00
2018-06-24T10:18:08.519Z,6080.00
2018-06-24T10:19:08.314Z,5912.00
2018-06-24T10:20:08.334Z,6188.00
2018-06-24T10:21:08.381Z,6564.00
2018-06-24T10:22:08.400Z,6696.00
2018-06-24T10:23:08.442Z,6492.00
2018-06-24T10:24:08.467Z,6784.00
2018-06-24T10:25:08.817Z,6780.00
2018-06-24T10:26:08.540Z,6636.00
2018-06-24T10:27:08.568Z,6292.00
2018-06-24T10:28:08.601Z,6540.00
2018-06-24T10:29:08.639Z,6332.00
2018-06-24T10:30:08.671Z,5956.00
2018-06-24T10:31:08.999Z,5820.00
2018-06-24T10:32:08.737Z,5884.00
2018-06-24T10:33:08.866Z,6160.00
2018-06-24T10:34:08.810Z,6180.00
2018-06-24T10:35:08.858Z,5932.00
2018-06-24T10:36:08.917Z,6200.00
2018-06-24T10:37:09.200Z,6296.00
2018-06-24T10:38:08.937Z,6332.00
2018-06-24T10:39:08.984Z,6648.00
2018-06-24T10:40:09.001Z,7392.00
2018-06-24T10:41:09.119Z,7516.00
2018-06-24T10:42:09.067Z,7180.00
2018-06-24T10:43:09.399Z,6352.00
2018-06-24T10:44:09.137Z,6176.00
2018-06-24T10:45:09.315Z,6000.00
2018-06-24T10:46:09.205Z,5996.00
2018-06-24T10:47:09.233Z,6492.00
2018-06-24T10:48:09.814Z,7104.00
2018-06-24T10:49:09.600Z,7060.00
2018-06-24T10:50:09.353Z,7468.00
2018-06-24T10:51:09.390Z,7596.00
2018-06-24T10:52:09.408Z,7512.00
2018-06-24T10:53:09.434Z,7160.00
2018-06-24T10:54:09.468Z,7284.00
2018-06-24T10:55:09.802Z,7412.00
2018-06-24T10:56:09.575Z,7700.00
2018-06-24T10:57:09.566Z,7400.00
2018-06-24T10:58:09.599Z,6872.00
2018-06-24T10:59:09.657Z,6932.00
2018-06-24T11:01:10.000Z,7232.00
2018-06-24T11:02:09.803Z,7620.00
2018-06-24T11:03:09.798Z,7984.00
2018-06-24T11:04:09.801Z,7948.00
2018-06-24T11:05:09.888Z,7508.00
2018-06-24T11:06:09.869Z,7308.00
2018-06-24T11:07:10.202Z,6880.00
2018-06-24T11:08:09.932Z,6812.00
2018-06-24T11:09:09.975Z,6960.00
2018-06-24T11:10:09.999Z,7496.00
2018-06-24T11:11:10.039Z,7636.00
2018-06-24T11:12:10.068Z,7728.00
2018-06-24T11:13:10.410Z,7976.00
2018-06-24T11:14:10.134Z,8172.00
2018-06-24T11:15:10.271Z,8508.00
2018-06-24T11:16:10.201Z,8884.00
2018-06-24T11:17:10.259Z,9204.00
2018-06-24T11:18:10.269Z,9028.00
2018-06-24T11:19:10.616Z,9024.00
2018-06-24T11:20:10.339Z,9220.00
2018-06-24T11:21:10.366Z,9444.00
2018-06-24T11:22:10.420Z,9768.00
2018-06-24T11:23:10.433Z,10096.00
2018-06-24T11:24:10.603Z,10296.00
2018-06-24T11:25:10.772Z,10012.00
2018-06-24T11:26:10.550Z,9976.00
2018-06-24T11:27:10.599Z,9688.00
2018-06-24T11:28:10.604Z,9648.00
2018-06-24T11:29:10.636Z,9608.00
2018-06-24T11:30:10.669Z,9896.00
2018-06-24T11:31:10.953Z,10036.00
2018-06-24T11:32:10.751Z,10324.00
2018-06-24T11:33:10.773Z,10012.00
2018-06-24T11:34:10.853Z,9552.00
2018-06-24T11:35:10.844Z,9756.00
2018-06-24T11:36:10.879Z,9716.00
2018-06-24T11:37:11.203Z,9580.00
2018-06-24T11:38:10.937Z,10028.00
2018-06-24T11:39:11.041Z,9868.00
2018-06-24T11:40:11.087Z,9828.00
2018-06-24T11:41:11.040Z,10036.00
2018-06-24T11:42:11.075Z,10140.00
2018-06-24T11:43:11.407Z,10040.00
2018-06-24T11:44:11.140Z,9768.00
2018-06-24T11:45:11.177Z,9520.00
2018-06-24T11:46:11.207Z,9140.00
2018-06-24T11:47:11.332Z,8888.00
2018-06-24T11:48:11.284Z,8568.00
2018-06-24T11:49:11.363Z,8480.00
2018-06-24T11:50:11.597Z,8584.00
2018-06-24T11:51:11.381Z,8644.00
2018-06-24T11:52:11.409Z,8868.00
2018-06-24T11:53:11.442Z,9168.00
2018-06-24T11:54:11.478Z,9504.00
2018-06-24T11:55:11.515Z,9960.00
2018-06-24T11:56:11.566Z,10144.00
2018-06-24T11:57:11.879Z,10336.00
2018-06-24T11:58:11.612Z,10344.00
2018-06-24T11:59:11.645Z,10172.00
2018-06-24T12:00:11.730Z,10052.00
2018-06-24T12:01:11.719Z,9988.00
2018-06-24T12:02:11.745Z,9956.00
2018-06-24T12:03:11.782Z,9936.00
2018-06-24T12:04:12.143Z,10224.00
2018-06-24T12:05:11.850Z,10584.00
2018-06-24T12:06:11.912Z,10952.00
2018-06-24T12:07:11.914Z,11208.00
2018-06-24T12:08:11.949Z,11500.00
2018-06-24T12:09:12.153Z,11608.00
2018-06-24T12:11:13.842Z,11820.00
2018-06-24T12:12:12.086Z,12012.00
2018-06-24T12:13:12.132Z,11604.00
2018-06-24T12:14:12.155Z,11004.00
2018-06-24T12:15:12.208Z,11228.00
2018-06-24T12:16:12.224Z,12108.00
2018-06-24T12:17:12.261Z,12720.00
2018-06-24T12:18:12.605Z,13092.00
2018-06-24T12:19:12.331Z,13100.00
2018-06-24T12:20:12.361Z,12968.00
2018-06-24T12:21:12.395Z,12588.00
2018-06-24T12:22:12.427Z,11888.00
2018-06-24T12:23:12.463Z,11512.00
2018-06-24T12:24:12.513Z,11480.00
2018-06-24T12:25:12.831Z,11584.00
2018-06-24T12:26:12.664Z,11340.00
2018-06-24T12:27:12.615Z,10920.00